createdAt,value
2017-07-12T00:01:10.681Z,19.80
2017-07-12T00:03:38.444Z,19.70
2017-07-12T00:06:05.733Z,19.80
2017-07-12T00:08:33.015Z,19.80
2017-07-12T00:11:00.828Z,19.80
2017-07-12T00:13:28.126Z,19.70
2017-07-12T00:15:55.430Z,19.70
2017-07-12T00:18:22.752Z,19.80
2017-07-12T00:20:50.279Z,19.70
2017-07-12T00:23:17.603Z,19.80
2017-07-12T00:25:44.894Z,19.80
2017-07-12T00:28:12.411Z,19.80
2017-07-12T00:30:39.704Z,19.80
2017-07-12T00:33:07.020Z,19.70
2017-07-12T00:35:34.476Z,19.70
2017-07-12T00:38:01.762Z,19.70
2017-07-12T00:40:29.211Z,19.80
2017-07-12T00:42:56.773Z,19.70
2017-07-12T00:45:24.074Z,19.80
2017-07-12T00:47:51.378Z,19.70
2017-07-12T00:50:18.673Z,19.80
2017-07-12T00:52:45.965Z,19.70
2017-07-12T00:55:13.269Z,19.70
2017-07-12T00:57:40.600Z,19.70
2017-07-12T01:00:08.056Z,19.70
2017-07-12T01:02:35.492Z,19.70
2017-07-12T01:05:02.971Z,19.70
2017-07-12T01:07:30.260Z,19.70
2017-07-12T01:09:57.542Z,19.70
2017-07-12T01:12:24.841Z,19.70
2017-07-12T01:14:52.147Z,19.70
2017-07-12T01:17:19.447Z,19.70
2017-07-12T01:19:46.745Z,19.70
2017-07-12T01:22:14.031Z,19.70
2017-07-12T01:24:41.332Z,19.70
2017-07-12T01:27:08.660Z,19.70
2017-07-12T01:29:35.967Z,19.70
2017-07-12T01:32:03.262Z,19.70
2017-07-12T01:34:30.553Z,19.70
2017-07-12T01:36:57.852Z,19.70
2017-07-12T01:39:25.224Z,19.70
2017-07-12T01:41:52.508Z,19.70
2017-07-12T01:44:20.204Z,19.70
2017-07-12T01:46:47.662Z,19.70
2017-07-12T01:49:14.951Z,19.70
2017-07-12T01:51:42.232Z,19.70
2017-07-12T01:54:10.034Z,19.80
2017-07-12T01:56:37.341Z,19.80
2017-07-12T01:59:04.649Z,19.80
2017-07-12T02:01:31.949Z,19.80
2017-07-12T02:03:59.245Z,19.80
2017-07-12T02:06:26.550Z,19.80
2017-07-12T02:08:53.862Z,19.80
2017-07-12T02:11:21.166Z,19.80
2017-07-12T02:13:48.467Z,19.70
2017-07-12T02:16:15.756Z,19.70
2017-07-12T02:18:43.053Z,19.70
2017-07-12T02:21:10.458Z,19.70
2017-07-12T02:23:37.757Z,19.70
2017-07-12T02:26:05.062Z,19.70
2017-07-12T02:28:32.372Z,19.70
2017-07-12T02:30:59.667Z,19.80
2017-07-12T02:33:26.950Z,19.80
2017-07-12T02:35:54.254Z,19.70
2017-07-12T02:38:21.806Z,19.70
2017-07-12T02:40:49.189Z,19.70
2017-07-12T02:43:16.491Z,19.80
2017-07-12T02:45:43.794Z,19.70
2017-07-12T02:48:11.091Z,19.70
2017-07-12T02:50:38.384Z,19.70
2017-07-12T02:53:05.679Z,19.70
2017-07-12T02:55:32.977Z,19.70
2017-07-12T02:58:00.465Z,19.70
2017-07-12T03:00:27.934Z,19.70
2017-07-12T03:02:55.468Z,19.70
2017-07-12T03:05:22.764Z,19.70
2017-07-12T03:07:50.047Z,19.70
2017-07-12T03:10:17.359Z,19.70
2017-07-12T03:12:44.807Z,19.70
2017-07-12T03:15:12.091Z,19.70
2017-07-12T03:17:39.794Z,19.70
2017-07-12T03:20:07.286Z,19.70
2017-07-12T03:22:34.578Z,19.70
2017-07-12T03:25:01.853Z,19.70
2017-07-12T03:27:29.135Z,19.70
2017-07-12T03:29:56.490Z,19.70
2017-07-12T03:32:23.783Z,19.70
2017-07-12T03:34:51.172Z,19.70
2017-07-12T03:37:18.476Z,19.70
2017-07-12T03:39:46.020Z,19.70
2017-07-12T03:42:13.311Z,19.70
2017-07-12T03:44:41.002Z,19.70
2017-07-12T03:47:08.305Z,19.70
2017-07-12T03:49:35.590Z,19.70
2017-07-12T03:52:02.999Z,19.70
2017-07-12T03:54:30.523Z,19.70
2017-07-12T03:56:57.846Z,19.70
2017-07-12T03:59:25.138Z,19.70
2017-07-12T04:01:52.450Z,19.70
2017-07-12T04:04:19.750Z,19.70
2017-07-12T04:06:47.128Z,19.70
2017-07-12T04:09:14.420Z,19.70
2017-07-12T04:11:41.714Z,19.70
2017-07-12T04:14:09.018Z,19.70
2017-07-12T04:16:36.320Z,19.70
2017-07-12T04:19:03.601Z,19.70
2017-07-12T04:21:30.908Z,19.70
2017-07-12T04:23:58.187Z,19.70
2017-07-12T04:26:25.482Z,19.70
2017-07-12T04:28:52.782Z,19.70
2017-07-12T04:31:20.089Z,19.70
2017-07-12T04:33:47.388Z,19.70
2017-07-12T04:36:14.676Z,19.70
2017-07-12T04:38:42.295Z,19.70
2017-07-12T04:41:09.593Z,19.70
2017-07-12T04:43:36.877Z,19.70
2017-07-12T04:46:04.291Z,19.70
2017-07-12T04:48:31.585Z,19.70
2017-07-12T04:50:58.964Z,19.70
2017-07-12T04:53:26.261Z,19.80
2017-07-12T04:55:53.564Z,19.90
2017-07-12T04:58:20.863Z,20.00
2017-07-12T05:00:48.419Z,20.00
2017-07-12T05:03:15.946Z,20.10
2017-07-12T05:05:43.242Z,20.20
2017-07-12T05:08:10.792Z,20.20
2017-07-12T05:10:38.096Z,20.20
2017-07-12T05:13:05.391Z,20.30
2017-07-12T05:15:32.857Z,20.10
2017-07-12T05:18:00.157Z,20.00
2017-07-12T05:20:27.452Z,19.90
2017-07-12T05:22:54.742Z,19.90
2017-07-12T05:25:22.041Z,19.90
2017-07-12T05:27:49.319Z,19.90
2017-07-12T05:30:16.450Z,19.80
2017-07-12T05:32:43.731Z,19.80
2017-07-12T05:35:11.026Z,19.80
2017-07-12T05:37:38.325Z,19.80
2017-07-12T05:40:05.603Z,19.80
2017-07-12T05:42:33.110Z,19.80
2017-07-12T05:45:00.394Z,19.80
2017-07-12T05:47:27.699Z,19.80
2017-07-12T05:49:54.998Z,19.80
2017-07-12T05:52:22.283Z,19.80
2017-07-12T05:54:49.979Z,19.80
2017-07-12T05:57:17.287Z,19.80
2017-07-12T05:59:44.592Z,19.80
2017-07-12T06:02:11.889Z,19.80
2017-07-12T06:04:39.189Z,19.80
2017-07-12T06:07:06.483Z,19.80
2017-07-12T06:09:33.777Z,19.80
2017-07-12T06:12:01.060Z,19.80
2017-07-12T06:14:28.340Z,19.80
2017-07-12T06:16:55.634Z,19.80
2017-07-12T06:19:23.432Z,19.80
2017-07-12T06:21:50.890Z,19.80
2017-07-12T06:24:18.279Z,19.80
2017-07-12T06:26:45.591Z,19.80
2017-07-12T06:29:12.889Z,19.80
2017-07-12T06:31:40.182Z,19.80
2017-07-12T06:34:07.798Z,19.80
2017-07-12T06:36:35.257Z,19.80
2017-07-12T06:39:02.715Z,19.80
2017-07-12T06:41:30.017Z,19.80
2017-07-12T06:43:57.392Z,19.80
2017-07-12T06:46:24.687Z,19.80
2017-07-12T06:48:51.964Z,19.80
2017-07-12T06:51:19.658Z,19.90
2017-07-12T06:53:46.943Z,19.80
2017-07-12T06:56:14.369Z,19.80
2017-07-12T06:58:41.826Z,19.80
2017-07-12T07:01:09.119Z,19.80
2017-07-12T07:03:36.663Z,19.80
2017-07-12T07:06:03.944Z,19.80
2017-07-12T07:08:31.279Z,19.80
2017-07-12T07:10:58.574Z,19.80
2017-07-12T07:13:25.883Z,19.80
2017-07-12T07:15:53.333Z,19.80
2017-07-12T07:18:20.621Z,19.80
2017-07-12T07:20:47.909Z,19.80
2017-07-12T07:23:15.198Z,19.80
2017-07-12T07:25:42.486Z,19.80
2017-07-12T07:28:09.768Z,19.90
2017-07-12T07:30:37.066Z,20.00
2017-07-12T07:33:04.366Z,20.10
2017-07-12T07:35:31.640Z,20.20
2017-07-12T07:37:58.938Z,20.20
2017-07-12T07:40:26.223Z,20.30
2017-07-12T07:42:53.501Z,20.30
2017-07-12T07:45:20.808Z,20.30
2017-07-12T07:47:48.136Z,20.30
2017-07-12T07:50:15.593Z,20.30
2017-07-12T07:52:42.881Z,20.30
2017-07-12T07:55:10.269Z,20.20
2017-07-12T07:57:37.551Z,20.10
2017-07-12T08:00:04.832Z,20.00
2017-07-12T08:02:32.516Z,20.00
2017-07-12T08:04:59.799Z,19.90
2017-07-12T08:07:27.087Z,19.90
2017-07-12T08:09:54.401Z,19.90
2017-07-12T08:12:21.693Z,19.90
2017-07-12T08:14:48.982Z,19.90
2017-07-12T08:17:16.281Z,19.90
2017-07-12T08:19:43.583Z,19.90
2017-07-12T08:22:11.295Z,19.90
2017-07-12T08:24:38.579Z,19.90
2017-07-12T08:27:05.881Z,19.80
2017-07-12T08:29:33.172Z,19.80
2017-07-12T08:32:00.468Z,19.80
2017-07-12T08:34:27.744Z,19.80
2017-07-12T08:36:55.049Z,19.80
2017-07-12T08:39:22.587Z,19.80
2017-07-12T08:41:49.863Z,19.80
2017-07-12T08:44:17.263Z,19.80
2017-07-12T08:46:44.654Z,19.80
2017-07-12T08:49:12.107Z,19.80
2017-07-12T08:51:39.391Z,19.80
2017-07-12T08:54:06.784Z,19.80
2017-07-12T08:56:34.089Z,19.80
2017-07-12T08:59:01.548Z,19.80
2017-07-12T09:01:29.087Z,19.80
2017-07-12T09:03:56.923Z,19.80
2017-07-12T09:06:24.218Z,19.80
2017-07-12T09:08:51.516Z,19.80
2017-07-12T09:11:18.984Z,19.80
2017-07-12T09:13:46.277Z,19.80
2017-07-12T09:16:13.561Z,19.80
2017-07-12T09:18:41.248Z,19.80
2017-07-12T09:21:08.734Z,19.80
2017-07-12T09:23:36.193Z,19.80
2017-07-12T09:33:25.236Z,19.80
2017-07-12T09:35:52.636Z,19.80
2017-07-12T09:38:19.943Z,19.80
2017-07-12T09:40:47.257Z,19.80
2017-07-12T09:43:14.536Z,19.80
2017-07-12T09:45:41.834Z,19.80
2017-07-12T09:48:09.134Z,19.80
2017-07-12T09:50:36.410Z,19.80
2017-07-12T09:53:03.696Z,19.80
2017-07-12T09:55:31.007Z,19.80
2017-07-12T09:57:58.459Z,19.80
2017-07-12T10:00:25.739Z,19.90
2017-07-12T10:02:53.041Z,19.80
2017-07-12T10:05:20.328Z,19.80
2017-07-12T10:07:47.616Z,19.80
2017-07-12T10:10:15.117Z,19.80
2017-07-12T10:12:42.423Z,19.80
2017-07-12T10:15:09.724Z,19.80
2017-07-12T10:17:37.008Z,19.80
2017-07-12T10:20:04.289Z,19.80
2017-07-12T10:22:31.795Z,19.80
2017-07-12T10:24:59.252Z,19.80
2017-07-12T10:27:26.531Z,19.80
2017-07-12T10:29:53.818Z,19.80
2017-07-12T10:32:21.090Z,19.80
2017-07-12T10:34:48.467Z,19.80
2017-07-12T10:37:15.764Z,19.80
2017-07-12T10:39:43.051Z,19.80
2017-07-12T10:42:10.602Z,19.80
2017-07-12T10:44:37.897Z,19.80
2017-07-12T10:47:05.202Z,19.80
2017-07-12T10:49:32.494Z,19.80
2017-07-12T10:52:00.054Z,19.80
2017-07-12T10:54:27.345Z,19.80
2017-07-12T10:56:54.970Z,19.80
2017-07-12T10:59:22.261Z,19.80
2017-07-12T11:01:49.590Z,19.80
2017-07-12T11:04:16.895Z,19.80
2017-07-12T11:06:44.197Z,19.80
2017-07-12T11:09:11.639Z,19.90
2017-07-12T11:11:38.960Z,20.00
2017-07-12T11:14:06.555Z,20.00
2017-07-12T11:16:33.850Z,20.10
2017-07-12T11:19:01.472Z,20.20
2017-07-12T11:21:28.762Z,20.20
2017-07-12T11:23:56.042Z,20.20
2017-07-12T11:26:23.331Z,20.10
2017-07-12T11:28:50.745Z,20.00
2017-07-12T11:31:18.134Z,19.90
2017-07-12T11:33:45.586Z,19.90
2017-07-12T11:36:12.881Z,19.90
2017-07-12T11:38:40.178Z,19.90
2017-07-12T11:41:07.462Z,19.90
2017-07-12T11:43:34.735Z,19.90
2017-07-12T11:46:02.040Z,19.80
2017-07-12T11:48:29.790Z,19.80
2017-07-12T11:50:57.085Z,19.80
2017-07-12T11:53:24.373Z,19.80
2017-07-12T11:55:52.169Z,19.80
2017-07-12T11:58:19.555Z,19.80
2017-07-12T12:00:47.012Z,19.80
2017-07-12T12:03:14.544Z,19.80
2017-07-12T12:05:41.846Z,19.80
2017-07-12T12:08:09.148Z,19.80
2017-07-12T12:10:36.436Z,19.80
2017-07-12T12:13:03.731Z,19.80
2017-07-12T12:15:31.209Z,19.80
2017-07-12T12:17:58.668Z,19.80
2017-07-12T12:20:25.957Z,19.80
2017-07-12T12:22:53.249Z,19.80
2017-07-12T12:25:20.941Z,19.80
2017-07-12T12:27:48.425Z,19.80
2017-07-12T12:30:15.728Z,19.80
2017-07-12T12:32:43.105Z,19.80
2017-07-12T12:35:10.483Z,19.80
2017-07-12T12:37:37.755Z,19.80
2017-07-12T12:40:05.169Z,19.80
2017-07-12T12:42:32.449Z,19.80
2017-07-12T12:45:00.011Z,19.80
2017-07-12T12:47:27.315Z,19.80
2017-07-12T12:49:54.691Z,19.80
2017-07-12T12:52:21.979Z,19.80
2017-07-12T12:54:49.274Z,19.80
2017-07-12T12:57:16.405Z,19.80
2017-07-12T12:59:44.137Z,19.80
2017-07-12T13:02:11.599Z,19.80
2017-07-12T13:04:44.314Z,19.80
2017-07-12T13:07:12.043Z,19.80
2017-07-12T13:09:39.571Z,19.80
2017-07-12T13:12:06.861Z,19.80
2017-07-12T13:14:34.167Z,19.80
2017-07-12T13:17:01.466Z,19.80
2017-07-12T13:19:29.093Z,19.80
2017-07-12T13:21:56.397Z,19.80
2017-07-12T13:24:23.929Z,19.80
2017-07-12T13:26:51.464Z,19.80
2017-07-12T13:29:18.852Z,19.80
2017-07-12T13:31:46.378Z,19.80
2017-07-12T13:34:13.685Z,19.80
2017-07-12T13:36:40.977Z,19.80
2017-07-12T13:39:08.272Z,19.80
2017-07-12T13:41:35.564Z,19.80
2017-07-12T13:44:03.259Z,19.80
2017-07-12T13:46:30.565Z,19.80
2017-07-12T13:48:57.965Z,19.80
2017-07-12T13:51:25.355Z,19.80
2017-07-12T13:53:52.639Z,19.80
2017-07-12T13:56:19.937Z,19.80
2017-07-12T13:58:47.219Z,19.80
2017-07-12T14:01:14.521Z,19.80
2017-07-12T14:03:41.803Z,19.80
2017-07-12T14:06:09.079Z,19.80
2017-07-12T14:08:36.408Z,19.80
2017-07-12T14:11:03.938Z,19.80
2017-07-12T14:13:31.241Z,19.80
2017-07-12T14:15:58.550Z,19.80
2017-07-12T14:18:25.846Z,19.80
2017-07-12T14:20:53.152Z,19.80
2017-07-12T14:23:20.444Z,19.80
2017-07-12T14:25:47.749Z,19.80
2017-07-12T14:28:15.035Z,19.70
2017-07-12T14:30:42.520Z,19.80
2017-07-12T14:33:09.813Z,19.80
2017-07-12T14:35:37.435Z,19.80
2017-07-12T14:38:04.759Z,19.80
2017-07-12T14:40:32.061Z,19.80
2017-07-12T14:42:59.376Z,19.90
2017-07-12T14:45:26.673Z,20.00
2017-07-12T14:47:54.405Z,20.10
2017-07-12T14:50:21.687Z,20.10
2017-07-12T14:52:48.993Z,20.20
2017-07-12T14:55:16.283Z,20.20
2017-07-12T14:57:43.694Z,20.10
2017-07-12T15:00:11.083Z,20.00
2017-07-12T15:02:38.372Z,19.90
2017-07-12T15:05:11.263Z,19.90
2017-07-12T15:07:38.755Z,19.90
2017-07-12T15:10:06.047Z,19.90
2017-07-12T15:12:33.591Z,19.80
2017-07-12T15:15:00.897Z,19.80
2017-07-12T15:17:28.183Z,19.80
2017-07-12T15:19:55.474Z,19.80
2017-07-12T15:22:22.788Z,19.80
2017-07-12T15:24:50.331Z,19.80
2017-07-12T15:27:17.766Z,19.80
2017-07-12T15:29:46.407Z,19.80
2017-07-12T15:32:18.608Z,19.80
2017-07-12T15:34:50.149Z,19.80
2017-07-12T15:37:18.709Z,19.80
2017-07-12T15:39:47.911Z,19.80
2017-07-12T15:42:17.309Z,19.80
2017-07-12T15:44:47.115Z,19.80
2017-07-12T16:03:19.623Z,19.80
2017-07-12T16:05:46.910Z,19.80
2017-07-12T16:08:14.412Z,19.80
2017-07-12T16:10:41.945Z,19.80
2017-07-12T16:13:09.403Z,19.80
2017-07-12T16:15:37.204Z,19.80
2017-07-12T16:18:05.111Z,19.80
2017-07-12T16:20:32.885Z,19.80
2017-07-12T16:23:00.793Z,19.80
2017-07-12T16:25:28.301Z,19.80
2017-07-12T16:27:56.216Z,19.80
2017-07-12T16:30:24.061Z,19.80
2017-07-12T16:32:51.515Z,19.80
2017-07-12T16:35:19.061Z,19.80
2017-07-12T16:37:46.928Z,19.80
2017-07-12T16:40:14.751Z,19.80
2017-07-12T16:42:42.049Z,19.80
2017-07-12T16:45:09.726Z,19.80
2017-07-12T16:47:37.116Z,19.80
2017-07-12T16:50:04.416Z,19.80
2017-07-12T16:52:32.016Z,19.80
2017-07-12T16:54:59.313Z,19.70
2017-07-12T16:57:26.708Z,19.80
2017-07-12T16:59:54.014Z,19.80
2017-07-12T17:02:21.300Z,19.70
2017-07-12T17:04:48.582Z,19.70
2017-07-12T17:07:16.630Z,19.80
2017-07-12T17:09:44.941Z,19.80
2017-07-12T17:12:13.024Z,19.70
2017-07-12T17:14:41.669Z,19.70
2017-07-12T17:17:10.050Z,19.70
2017-07-12T17:19:37.992Z,19.70
2017-07-12T17:22:05.984Z,19.80
2017-07-12T17:24:33.957Z,19.70
2017-07-12T17:27:02.004Z,19.80
2017-07-12T17:29:30.106Z,19.70
2017-07-12T17:31:58.440Z,19.80
2017-07-12T17:34:26.548Z,19.70
2017-07-12T17:36:54.447Z,19.70
2017-07-12T17:39:22.227Z,19.70
2017-07-12T17:41:50.303Z,19.70
2017-07-12T17:44:18.836Z,19.70
2017-07-12T17:46:46.134Z,19.70
2017-07-12T17:49:13.683Z,19.80
2017-07-12T17:51:41.158Z,19.70
2017-07-12T17:54:08.457Z,19.70
2017-07-12T17:56:35.761Z,20.00
2017-07-12T17:59:03.056Z,19.90
2017-07-12T18:01:30.355Z,20.50
2017-07-12T18:03:57.635Z,20.00
2017-07-12T18:06:25.027Z,20.00
2017-07-12T18:08:52.419Z,19.90
2017-07-12T18:11:19.951Z,19.90
2017-07-12T18:13:47.261Z,22.10
2017-07-12T18:16:14.565Z,22.40
2017-07-12T18:18:41.869Z,21.20
2017-07-12T18:21:09.180Z,20.30
2017-07-12T18:23:36.613Z,20.10
2017-07-12T18:26:03.911Z,20.00
2017-07-12T18:28:31.203Z,19.90
2017-07-12T18:30:58.541Z,19.90
2017-07-12T18:33:25.849Z,19.90
2017-07-12T18:35:53.154Z,19.90
2017-07-12T18:38:21.357Z,19.90
2017-07-12T18:40:48.753Z,19.90
2017-07-12T18:43:16.042Z,19.90
2017-07-12T18:45:45.671Z,19.90
2017-07-12T18:48:13.020Z,19.80
2017-07-12T18:50:40.424Z,19.80
2017-07-12T20:35:04.771Z,19.80
2017-07-12T20:37:32.094Z,19.80
2017-07-12T20:39:59.406Z,19.80
2017-07-12T20:42:26.699Z,19.80
2017-07-12T20:44:54.105Z,19.80
2017-07-12T20:47:21.413Z,19.80
2017-07-12T20:49:48.706Z,19.80
2017-07-12T20:52:16.002Z,19.80
2017-07-12T20:54:43.701Z,19.80
2017-07-12T20:57:11.057Z,19.90
2017-07-12T20:59:38.374Z,19.90
2017-07-12T21:02:05.686Z,19.90
2017-07-12T21:04:32.966Z,19.90
2017-07-12T21:07:00.295Z,20.00
2017-07-12T21:09:27.594Z,20.00
2017-07-12T21:11:54.901Z,19.90
2017-07-12T21:14:22.244Z,19.90
2017-07-12T21:16:49.539Z,19.90
2017-07-12T21:19:17.003Z,19.90
2017-07-12T21:21:44.697Z,19.90
2017-07-12T21:24:11.993Z,19.90
2017-07-12T21:26:39.348Z,19.80
2017-07-12T21:29:06.874Z,19.80
2017-07-12T21:31:33.292Z,19.80
2017-07-12T21:33:59.638Z,19.80
2017-07-12T21:36:25.833Z,19.80
2017-07-12T21:38:52.370Z,19.80
2017-07-12T21:41:18.911Z,19.80
2017-07-12T21:43:45.649Z,19.80
2017-07-12T21:46:11.823Z,19.80
2017-07-12T21:48:38.010Z,19.80
2017-07-12T21:51:04.387Z,19.80
2017-07-12T21:53:36.513Z,19.80
2017-07-12T21:56:08.625Z,19.80
2017-07-12T21:58:40.834Z,19.80
2017-07-12T22:01:13.102Z,19.80
2017-07-12T22:03:45.405Z,19.80
2017-07-12T22:06:17.651Z,19.80
2017-07-12T22:08:49.968Z,19.80
2017-07-12T22:11:22.109Z,19.80
2017-07-12T22:13:54.204Z,19.80
2017-07-12T22:16:26.372Z,19.80
2017-07-12T22:18:58.592Z,19.80
2017-07-12T22:21:30.957Z,19.80
2017-07-12T22:24:04.077Z,19.80
2017-07-12T22:26:36.189Z,19.80
2017-07-12T22:29:08.517Z,19.80
2017-07-12T22:31:40.889Z,19.80
2017-07-12T22:34:12.988Z,19.80
2017-07-12T22:36:45.716Z,19.80
2017-07-12T22:39:19.408Z,19.80
2017-07-12T22:41:51.681Z,19.80
2017-07-12T22:44:21.012Z,19.80
2017-07-12T22:46:49.829Z,19.80
2017-07-12T22:49:16.743Z,19.80
2017-07-12T22:51:43.276Z,19.80
2017-07-12T22:54:10.291Z,19.80
2017-07-12T22:56:36.459Z,19.80
2017-07-12T22:59:02.657Z,19.80
2017-07-12T23:01:30.857Z,19.80
2017-07-12T23:03:57.159Z,19.80
2017-07-12T23:06:23.724Z,19.80
2017-07-12T23:08:49.918Z,19.80
2017-07-12T23:11:16.657Z,19.80
2017-07-12T23:13:42.846Z,19.80
2017-07-12T23:16:09.035Z,19.80
2017-07-12T23:18:35.236Z,19.80
2017-07-12T23:21:01.706Z,19.80
2017-07-12T23:23:27.879Z,19.80
2017-07-12T23:25:54.064Z,19.80
2017-07-12T23:28:20.249Z,19.80
2017-07-12T23:30:46.450Z,19.80
2017-07-12T23:33:12.729Z,19.80
2017-07-12T23:35:39.077Z,19.80
2017-07-12T23:38:05.273Z,19.80
2017-07-12T23:40:31.815Z,19.80
2017-07-12T23:42:58.971Z,19.80
2017-07-12T23:45:25.883Z,19.80
2017-07-12T23:47:52.235Z,19.80
2017-07-12T23:50:18.470Z,19.90
2017-07-12T23:52:44.827Z,20.00
2017-07-12T23:55:10.993Z,20.00
2017-07-12T23:57:37.596Z,20.10
